sensor_id;sensor_type;location;lat;lon;timestamp;pressure;altitude;pressure_sealevel;temperature;humidity
9423;BME280;65863;49.506;10.400;2023-02-23T00:02:29;97501.13;;;6.08;87.07
9423;BME280;65863;49.506;10.400;2023-02-23T00:05:13;97586.94;;;6.42;87.25
9423;BME280;65863;49.506;10.400;2023-02-23T00:07:58;97581.44;;;6.36;87.44
9423;BME280;65863;49.506;10.400;2023-02-23T00:10:42;97492.09;;;5.89;87.35
9423;BME280;65863;49.506;10.400;2023-02-23T00:13:27;97518.88;;;5.92;87.20
9423;BME280;65863;49.506;10.400;2023-02-23T00:16:13;97596.47;;;6.60;87.26
9423;BME280;65863;49.506;10.400;2023-02-23T00:18:58;97532.19;;;6.12;87.17
9423;BME280;65863;49.506;10.400;2023-02-23T00:21:43;97640.34;;;6.86;87.72
9423;BME280;65863;49.506;10.400;2023-02-23T00:24:28;97520.84;;;6.10;87.53
9423;BME280;65863;49.506;10.400;2023-02-23T00:27:13;97677.69;;;7.23;87.66
9423;BME280;65863;49.506;10.400;2023-02-23T00:30:01;97639.38;;;6.97;87.60
9423;BME280;65863;49.506;10.400;2023-02-23T00:32:45;97574.91;;;6.61;87.70
9423;BME280;65863;49.506;10.400;2023-02-23T00:35:29;97539.31;;;6.27;87.46
9423;BME280;65863;49.506;10.400;2023-02-23T00:38:13;97513.13;;;6.16;87.82
9423;BME280;65863;49.506;10.400;2023-02-23T00:40:57;97597.88;;;6.53;87.32
9423;BME280;65863;49.506;10.400;2023-02-23T00:43:41;97507.28;;;5.88;87.76
9423;BME280;65863;49.506;10.400;2023-02-23T00:46:30;97578.63;;;6.23;87.85
9423;BME280;65863;49.506;10.400;2023-02-23T00:49:14;97495.41;;;5.87;88.06
9423;BME280;65863;49.506;10.400;2023-02-23T00:51:58;97630.03;;;6.81;88.50
9423;BME280;65863;49.506;10.400;2023-02-23T00:54:43;97653.00;;;7.01;88.27
9423;BME280;65863;49.506;10.400;2023-02-23T00:57:27;97520.75;;;6.02;88.59
9423;BME280;65863;49.506;10.400;2023-02-23T01:00:11;97529.22;;;6.10;88.48
9423;BME280;65863;49.506;10.400;2023-02-23T01:03:03;97517.44;;;5.72;88.32
9423;BME280;65863;49.506;10.400;2023-02-23T01:05:47;97469.56;;;5.27;88.44
9423;BME280;65863;49.506;10.400;2023-02-23T01:08:33;97657.94;;;6.81;88.86
9423;BME280;65863;49.506;10.400;2023-02-23T01:11:19;97665.13;;;6.77;88.76
9423;BME280;65863;49.506;10.400;2023-02-23T01:14:04;97585.78;;;6.05;89.19
9423;BME280;65863;49.506;10.400;2023-02-23T01:16:48;97583.75;;;6.06;89.44
9423;BME280;65863;49.506;10.400;2023-02-23T01:19:32;97689.47;;;6.63;89.79
9423;BME280;65863;49.506;10.400;2023-02-23T01:22:17;97491.47;;;5.17;89.69
9423;BME280;65863;49.506;10.400;2023-02-23T01:25:02;97468.25;;;4.96;89.33
9423;BME280;65863;49.506;10.400;2023-02-23T01:27:50;97565.16;;;5.62;90.06
9423;BME280;65863;49.506;10.400;2023-02-23T01:30:34;97513.50;;;5.15;89.93
9423;BME280;65863;49.506;10.400;2023-02-23T01:33:17;97565.13;;;5.49;90.23
9423;BME280;65863;49.506;10.400;2023-02-23T01:36:01;97563.81;;;5.17;90.49
9423;BME280;65863;49.506;10.400;2023-02-23T01:38:45;97550.94;;;5.14;90.69
9423;BME280;65863;49.506;10.400;2023-02-23T01:41:29;97539.09;;;4.95;90.95
9423;BME280;65863;49.506;10.400;2023-02-23T01:47:00;97480.97;;;4.72;91.61
9423;BME280;65863;49.506;10.400;2023-02-23T01:49:44;97647.84;;;6.06;91.67
9423;BME280;65863;49.506;10.400;2023-02-23T01:52:29;97465.88;;;4.48;91.58
9423;BME280;65863;49.506;10.400;2023-02-23T01:55:14;97538.31;;;4.94;91.79
9423;BME280;65863;49.506;10.400;2023-02-23T01:58:04;97627.63;;;5.67;91.70
9423;BME280;65863;49.506;10.400;2023-02-23T02:00:53;97652.16;;;5.88;92.10
9423;BME280;65863;49.506;10.400;2023-02-23T02:03:44;97473.28;;;4.40;91.82
9423;BME280;65863;49.506;10.400;2023-02-23T02:06:30;97645.22;;;5.75;91.97
9423;BME280;65863;49.506;10.400;2023-02-23T02:09:16;97651.34;;;5.74;91.89
9423;BME280;65863;49.506;10.400;2023-02-23T02:12:00;97565.38;;;4.94;92.29
9423;BME280;65863;49.506;10.400;2023-02-23T02:14:45;97559.50;;;4.97;92.11
9423;BME280;65863;49.506;10.400;2023-02-23T02:24:37;97467.59;;;4.52;92.27
9423;BME280;65863;49.506;10.400;2023-02-23T02:27:46;97645.06;;;5.86;92.22
9423;BME280;65863;49.506;10.400;2023-02-23T02:30:47;97475.19;;;4.70;91.71
9423;BME280;65863;49.506;10.400;2023-02-23T02:40:19;97636.31;;;5.96;92.59
9423;BME280;65863;49.506;10.400;2023-02-23T02:46:01;97528.25;;;5.10;92.51
9423;BME280;65863;49.506;10.400;2023-02-23T02:51:50;97451.59;;;4.77;92.78
9423;BME280;65863;49.506;10.400;2023-02-23T02:54:52;97543.41;;;5.47;93.01
9423;BME280;65863;49.506;10.400;2023-02-23T02:57:37;97650.66;;;6.19;93.34
9423;BME280;65863;49.506;10.400;2023-02-23T03:00:29;97578.56;;;5.64;93.32
9423;BME280;65863;49.506;10.400;2023-02-23T03:03:43;97548.50;;;5.43;93.04
9423;BME280;65863;49.506;10.400;2023-02-23T03:06:58;97487.03;;;5.41;93.56
9423;BME280;65863;49.506;10.400;2023-02-23T03:10:28;97630.31;;;6.37;93.78
9423;BME280;65863;49.506;10.400;2023-02-23T03:13:51;97529.69;;;5.49;94.01
9423;BME280;65863;49.506;10.400;2023-02-23T03:17:05;97505.41;;;5.31;93.82
9423;BME280;65863;49.506;10.400;2023-02-23T03:20:38;97526.34;;;5.70;93.95
9423;BME280;65863;49.506;10.400;2023-02-23T03:27:51;97630.25;;;6.57;94.64
9423;BME280;65863;49.506;10.400;2023-02-23T03:34:21;97579.06;;;6.27;94.25
9423;BME280;65863;49.506;10.400;2023-02-23T03:37:38;97536.50;;;6.00;94.03
9423;BME280;65863;49.506;10.400;2023-02-23T03:40:45;97497.75;;;5.83;94.27
9423;BME280;65863;49.506;10.400;2023-02-23T03:44:01;97552.13;;;6.03;94.12
9423;BME280;65863;49.506;10.400;2023-02-23T03:47:05;97567.81;;;6.33;94.25
9423;BME280;65863;49.506;10.400;2023-02-23T03:50:18;97517.25;;;5.83;94.12
9423;BME280;65863;49.506;10.400;2023-02-23T03:53:28;97579.59;;;6.26;94.13
9423;BME280;65863;49.506;10.400;2023-02-23T03:56:36;97498.66;;;5.59;94.03
9423;BME280;65863;49.506;10.400;2023-02-23T03:59:45;97521.66;;;5.46;94.07
9423;BME280;65863;49.506;10.400;2023-02-23T04:02:58;97478.34;;;4.99;93.86
9423;BME280;65863;49.506;10.400;2023-02-23T04:06:06;97594.66;;;5.71;94.05
9423;BME280;65863;49.506;10.400;2023-02-23T04:09:10;97504.25;;;5.07;94.21
9423;BME280;65863;49.506;10.400;2023-02-23T04:12:23;97663.22;;;6.26;94.52
9423;BME280;65863;49.506;10.400;2023-02-23T04:15:41;97529.56;;;5.23;94.53
9423;BME280;65863;49.506;10.400;2023-02-23T04:18:32;97506.50;;;5.28;94.10
9423;BME280;65863;49.506;10.400;2023-02-23T04:21:17;97480.13;;;4.96;94.69
9423;BME280;65863;49.506;10.400;2023-02-23T04:24:01;97658.72;;;6.23;95.00
9423;BME280;65863;49.506;10.400;2023-02-23T04:26:45;97547.75;;;5.43;94.85
9423;BME280;65863;49.506;10.400;2023-02-23T04:29:28;97461.94;;;4.95;94.78
9423;BME280;65863;49.506;10.400;2023-02-23T04:32:15;97570.53;;;5.60;94.83
9423;BME280;65863;49.506;10.400;2023-02-23T04:34:59;97591.75;;;5.63;95.06
9423;BME280;65863;49.506;10.400;2023-02-23T04:37:43;97516.81;;;5.14;94.75
9423;BME280;65863;49.506;10.400;2023-02-23T04:40:28;97570.66;;;5.68;94.75
9423;BME280;65863;49.506;10.400;2023-02-23T04:43:12;97497.25;;;5.20;94.43
9423;BME280;65863;49.506;10.400;2023-02-23T04:45:56;97539.66;;;5.26;94.95
9423;BME280;65863;49.506;10.400;2023-02-23T04:48:40;97523.72;;;5.26;94.66
9423;BME280;65863;49.506;10.400;2023-02-23T04:51:24;97558.75;;;5.35;94.70
9423;BME280;65863;49.506;10.400;2023-02-23T04:54:13;97528.75;;;5.28;94.56
9423;BME280;65863;49.506;10.400;2023-02-23T04:56:57;97586.75;;;5.75;94.90
9423;BME280;65863;49.506;10.400;2023-02-23T04:59:41;97530.88;;;5.22;94.56
9423;BME280;65863;49.506;10.400;2023-02-23T05:02:25;97551.16;;;5.35;94.85
9423;BME280;65863;49.506;10.400;2023-02-23T05:05:09;97538.88;;;5.44;94.88
9423;BME280;65863;49.506;10.400;2023-02-23T05:07:53;97661.63;;;5.98;94.31
9423;BME280;65863;49.506;10.400;2023-02-23T05:10:37;97537.09;;;5.28;94.59
9423;BME280;65863;49.506;10.400;2023-02-23T05:13:21;97551.75;;;5.47;94.34
9423;BME280;65863;49.506;10.400;2023-02-23T05:16:06;97586.81;;;5.69;94.34
9423;BME280;65863;49.506;10.400;2023-02-23T05:18:50;97542.34;;;5.31;94.50
9423;BME280;65863;49.506;10.400;2023-02-23T05:21:34;97591.22;;;5.65;94.41
9423;BME280;65863;49.506;10.400;2023-02-23T05:24:18;97521.09;;;5.15;94.55
9423;BME280;65863;49.506;10.400;2023-02-23T05:27:02;97526.78;;;5.23;94.67
9423;BME280;65863;49.506;10.400;2023-02-23T05:29:46;97494.53;;;5.14;94.63
9423;BME280;65863;49.506;10.400;2023-02-23T05:32:30;97485.84;;;5.04;94.81
9423;BME280;65863;49.506;10.400;2023-02-23T05:35:14;97645.56;;;6.36;95.50
9423;BME280;65863;49.506;10.400;2023-02-23T05:37:58;97586.81;;;5.89;95.29
9423;BME280;65863;49.506;10.400;2023-02-23T05:40:42;97605.16;;;5.97;95.10
9423;BME280;65863;49.506;10.400;2023-02-23T05:43:26;97552.31;;;5.59;95.33
9423;BME280;65863;49.506;10.400;2023-02-23T05:46:13;97656.41;;;6.40;95.37
9423;BME280;65863;49.506;10.400;2023-02-23T05:48:59;97534.88;;;5.59;95.64
9423;BME280;65863;49.506;10.400;2023-02-23T05:51:43;97512.31;;;5.43;95.48
9423;BME280;65863;49.506;10.400;2023-02-23T05:54:27;97611.19;;;6.01;95.51
9423;BME280;65863;49.506;10.400;2023-02-23T05:57:11;97604.13;;;5.81;95.36
9423;BME280;65863;49.506;10.400;2023-02-23T05:59:55;97585.75;;;5.73;95.50
9423;BME280;65863;49.506;10.400;2023-02-23T06:02:39;97533.09;;;5.42;95.42
9423;BME280;65863;49.506;10.400;2023-02-23T06:05:24;97574.72;;;5.67;95.37
9423;BME280;65863;49.506;10.400;2023-02-23T06:08:08;97645.63;;;6.17;95.53
9423;BME280;65863;49.506;10.400;2023-02-23T06:10:55;97658.28;;;6.18;95.21
9423;BME280;65863;49.506;10.400;2023-02-23T06:13:39;97591.16;;;5.84;95.37
9423;BME280;65863;49.506;10.400;2023-02-23T06:16:24;97642.03;;;6.03;95.23
9423;BME280;65863;49.506;10.400;2023-02-23T06:19:08;97544.75;;;5.41;95.35
9423;BME280;65863;49.506;10.400;2023-02-23T06:21:52;97517.97;;;5.38;95.39
9423;BME280;65863;49.506;10.400;2023-02-23T06:24:36;97513.78;;;5.31;95.53
9423;BME280;65863;49.506;10.400;2023-02-23T06:27:20;97607.75;;;5.76;95.76
9423;BME280;65863;49.506;10.400;2023-02-23T06:30:04;97633.72;;;6.17;95.65
9423;BME280;65863;49.506;10.400;2023-02-23T06:32:48;97559.75;;;5.70;95.66
9423;BME280;65863;49.506;10.400;2023-02-23T06:35:36;97562.19;;;5.60;95.90
9423;BME280;65863;49.506;10.400;2023-02-23T06:38:21;97596.31;;;5.80;95.77
9423;BME280;65863;49.506;10.400;2023-02-23T06:41:08;97668.44;;;6.48;96.20
9423;BME280;65863;49.506;10.400;2023-02-23T06:43:53;97698.19;;;6.72;96.26
9423;BME280;65863;49.506;10.400;2023-02-23T06:46:37;97667.69;;;6.75;96.33
9423;BME280;65863;49.506;10.400;2023-02-23T06:49:21;97672.31;;;6.85;96.33
9423;BME280;65863;49.506;10.400;2023-02-23T06:52:06;97668.44;;;6.88;96.56
9423;BME280;65863;49.506;10.400;2023-02-23T06:54:50;97670.38;;;6.80;96.14
9423;BME280;65863;49.506;10.400;2023-02-23T06:57:34;97680.69;;;6.85;96.12
9423;BME280;65863;49.506;10.400;2023-02-23T07:00:18;97693.81;;;6.91;96.23
9423;BME280;65863;49.506;10.400;2023-02-23T07:03:02;97671.88;;;6.81;96.56
9423;BME280;65863;49.506;10.400;2023-02-23T07:05:46;97689.69;;;6.92;96.13
9423;BME280;65863;49.506;10.400;2023-02-23T07:08:31;97687.13;;;6.80;96.09
9423;BME280;65863;49.506;10.400;2023-02-23T07:11:15;97699.59;;;7.06;96.66
9423;BME280;65863;49.506;10.400;2023-02-23T07:14:00;97686.91;;;6.92;96.46
9423;BME280;65863;49.506;10.400;2023-02-23T07:16:45;97690.47;;;6.92;96.80
9423;BME280;65863;49.506;10.400;2023-02-23T07:19:29;97713.22;;;7.10;96.84
9423;BME280;65863;49.506;10.400;2023-02-23T07:22:13;97680.50;;;6.83;96.53
9423;BME280;65863;49.506;10.400;2023-02-23T07:24:57;97699.38;;;6.91;96.53
9423;BME280;65863;49.506;10.400;2023-02-23T07:27:41;97685.31;;;6.96;97.03
9423;BME280;65863;49.506;10.400;2023-02-23T07:30:26;97697.44;;;7.12;96.83
9423;BME280;65863;49.506;10.400;2023-02-23T07:33:10;97699.16;;;7.15;97.06
9423;BME280;65863;49.506;10.400;2023-02-23T07:35:54;97693.88;;;7.38;96.93
9423;BME280;65863;49.506;10.400;2023-02-23T07:38:38;97640.97;;;6.93;96.87
9423;BME280;65863;49.506;10.400;2023-02-23T07:41:22;97721.22;;;7.67;97.14
9423;BME280;65863;49.506;10.400;2023-02-23T07:44:06;97720.59;;;7.61;96.80
9423;BME280;65863;49.506;10.400;2023-02-23T07:46:50;97703.81;;;7.61;96.93
9423;BME280;65863;49.506;10.400;2023-02-23T07:49:35;97708.75;;;7.68;96.65
9423;BME280;65863;49.506;10.400;2023-02-23T07:52:19;97702.06;;;7.71;96.61
9423;BME280;65863;49.506;10.400;2023-02-23T07:55:04;97704.00;;;7.76;96.22
9423;BME280;65863;49.506;10.400;2023-02-23T07:57:48;97734.56;;;7.95;96.41
9423;BME280;65863;49.506;10.400;2023-02-23T08:00:33;97707.00;;;7.78;96.45
9423;BME280;65863;49.506;10.400;2023-02-23T08:03:19;97724.78;;;8.02;96.23
9423;BME280;65863;49.506;10.400;2023-02-23T08:06:03;97723.69;;;8.05;96.45
9423;BME280;65863;49.506;10.400;2023-02-23T08:08:47;97673.75;;;7.53;96.24
9423;BME280;65863;49.506;10.400;2023-02-23T08:11:31;97725.66;;;7.97;96.17
9423;BME280;65863;49.506;10.400;2023-02-23T08:14:15;97714.28;;;7.95;96.56
9423;BME280;65863;49.506;10.400;2023-02-23T08:16:58;97716.63;;;8.04;96.37
9423;BME280;65863;49.506;10.400;2023-02-23T08:19:44;97704.59;;;7.96;96.62
9423;BME280;65863;49.506;10.400;2023-02-23T08:22:28;97743.66;;;8.22;96.56
9423;BME280;65863;49.506;10.400;2023-02-23T08:25:12;97711.22;;;8.06;96.88
9423;BME280;65863;49.506;10.400;2023-02-23T08:27:56;97690.06;;;7.97;96.60
9423;BME280;65863;49.506;10.400;2023-02-23T08:30:42;97715.69;;;8.22;96.83
9423;BME280;65863;49.506;10.400;2023-02-23T08:33:26;97719.50;;;8.33;96.87
9423;BME280;65863;49.506;10.400;2023-02-23T08:36:10;97730.41;;;8.23;96.59
9423;BME280;65863;49.506;10.400;2023-02-23T08:38:54;97719.91;;;8.16;96.89
9423;BME280;65863;49.506;10.400;2023-02-23T08:41:39;97745.88;;;8.24;96.63
9423;BME280;65863;49.506;10.400;2023-02-23T08:44:23;97711.28;;;8.14;96.63
9423;BME280;65863;49.506;10.400;2023-02-23T08:47:08;97717.03;;;8.29;96.86
9423;BME280;65863;49.506;10.400;2023-02-23T08:49:52;97755.34;;;8.55;96.91
9423;BME280;65863;49.506;10.400;2023-02-23T08:52:39;97750.78;;;8.66;96.56
9423;BME280;65863;49.506;10.400;2023-02-23T08:55:24;97720.00;;;8.44;96.46
9423;BME280;65863;49.506;10.400;2023-02-23T08:58:08;97739.03;;;8.67;96.57
9423;BME280;65863;49.506;10.400;2023-02-23T09:00:56;97747.50;;;8.75;96.45
9423;BME280;65863;49.506;10.400;2023-02-23T09:03:41;97743.19;;;8.74;96.54
9423;BME280;65863;49.506;10.400;2023-02-23T09:06:26;97669.84;;;8.25;96.55
9423;BME280;65863;49.506;10.400;2023-02-23T09:09:10;97720.81;;;8.53;96.34
9423;BME280;65863;49.506;10.400;2023-02-23T09:11:54;97728.97;;;8.93;96.78
9423;BME280;65863;49.506;10.400;2023-02-23T09:14:38;97721.06;;;8.84;96.94
9423;BME280;65863;49.506;10.400;2023-02-23T09:17:23;97747.09;;;9.28;96.95
9423;BME280;65863;49.506;10.400;2023-02-23T09:20:07;97739.28;;;9.63;96.84
9423;BME280;65863;49.506;10.400;2023-02-23T09:22:55;97730.19;;;9.86;96.81
9423;BME280;65863;49.506;10.400;2023-02-23T09:25:40;97679.03;;;9.41;95.92
9423;BME280;65863;49.506;10.400;2023-02-23T09:28:26;97758.28;;;10.02;95.83
9423;BME280;65863;49.506;10.400;2023-02-23T09:31:19;97744.00;;;9.76;95.29
9423;BME280;65863;49.506;10.400;2023-02-23T09:34:03;97734.56;;;10.03;95.09
9423;BME280;65863;49.506;10.400;2023-02-23T09:36:47;97754.13;;;9.87;94.30
9423;BME280;65863;49.506;10.400;2023-02-23T09:39:31;97759.75;;;9.95;94.22
9423;BME280;65863;49.506;10.400;2023-02-23T09:42:22;97706.31;;;9.93;93.99
9423;BME280;65863;49.506;10.400;2023-02-23T09:45:18;97758.00;;;10.28;93.78
9423;BME280;65863;49.506;10.400;2023-02-23T09:48:20;97753.75;;;10.43;93.42
9423;BME280;65863;49.506;10.400;2023-02-23T09:51:06;97733.53;;;10.37;92.46
9423;BME280;65863;49.506;10.400;2023-02-23T09:53:53;97754.34;;;10.57;92.02
9423;BME280;65863;49.506;10.400;2023-02-23T09:56:39;97730.72;;;10.44;91.57
9423;BME280;65863;49.506;10.400;2023-02-23T09:59:26;97748.72;;;10.64;91.14
9423;BME280;65863;49.506;10.400;2023-02-23T10:05:17;97727.19;;;10.67;90.24
9423;BME280;65863;49.506;10.400;2023-02-23T10:08:05;97755.84;;;10.73;89.42
9423;BME280;65863;49.506;10.400;2023-02-23T10:11:04;97737.69;;;10.43;89.02
9423;BME280;65863;49.506;10.400;2023-02-23T10:20:31;97756.19;;;10.77;88.65
9423;BME280;65863;49.506;10.400;2023-02-23T10:23:26;97758.84;;;10.67;88.34
9423;BME280;65863;49.506;10.400;2023-02-23T10:26:18;97733.53;;;10.37;88.04
9423;BME280;65863;49.506;10.400;2023-02-23T10:29:18;97735.94;;;10.32;87.99
9423;BME280;65863;49.506;10.400;2023-02-23T10:34:56;97735.03;;;10.53;88.43
9423;BME280;65863;49.506;10.400;2023-02-23T10:37:41;97741.97;;;10.60;88.41
9423;BME280;65863;49.506;10.400;2023-02-23T10:40:27;97747.22;;;10.63;88.07
9423;BME280;65863;49.506;10.400;2023-02-23T10:43:13;97741.22;;;10.51;88.18
9423;BME280;65863;49.506;10.400;2023-02-23T10:45:57;97721.03;;;10.38;87.72
9423;BME280;65863;49.506;10.400;2023-02-23T10:48:42;97723.63;;;10.36;87.50
9423;BME280;65863;49.506;10.400;2023-02-23T10:51:33;97753.94;;;10.53;87.44
9423;BME280;65863;49.506;10.400;2023-02-23T10:54:50;97755.84;;;10.65;87.67
9423;BME280;65863;49.506;10.400;2023-02-23T10:57:37;97707.09;;;10.01;87.63
9423;BME280;65863;49.506;10.400;2023-02-23T11:00:27;97715.75;;;10.34;87.81
9423;BME280;65863;49.506;10.400;2023-02-23T11:03:25;97765.94;;;10.68;87.56
9423;BME280;65863;49.506;10.400;2023-02-23T11:06:33;97736.53;;;10.54;87.39
9423;BME280;65863;49.506;10.400;2023-02-23T11:09:29;97752.28;;;10.65;87.13
9423;BME280;65863;49.506;10.400;2023-02-23T11:12:15;97760.72;;;10.80;87.13
9423;BME280;65863;49.506;10.400;2023-02-23T11:15:21;97737.88;;;10.61;86.37
9423;BME280;65863;49.506;10.400;2023-02-23T11:18:18;97758.06;;;10.59;86.23
9423;BME280;65863;49.506;10.400;2023-02-23T11:21:11;97754.34;;;10.57;86.35
9423;BME280;65863;49.506;10.400;2023-02-23T11:23:57;97751.88;;;10.38;86.72
9423;BME280;65863;49.506;10.400;2023-02-23T11:26:43;97760.81;;;10.28;86.69
9423;BME280;65863;49.506;10.400;2023-02-23T11:29:33;97743.41;;;10.22;87.13
9423;BME280;65863;49.506;10.400;2023-02-23T11:32:25;97748.25;;;10.14;87.51
9423;BME280;65863;49.506;10.400;2023-02-23T11:35:33;97753.09;;;10.13;87.68
9423;BME280;65863;49.506;10.400;2023-02-23T11:38:26;97728.72;;;9.93;88.09
9423;BME280;65863;49.506;10.400;2023-02-23T11:41:22;97738.88;;;10.04;88.76
9423;BME280;65863;49.506;10.400;2023-02-23T11:44:18;97748.97;;;10.07;89.08
9423;BME280;65863;49.506;10.400;2023-02-23T11:47:02;97735.50;;;10.05;89.75
9423;BME280;65863;49.506;10.400;2023-02-23T11:49:47;97701.44;;;9.93;90.27
9423;BME280;65863;49.506;10.400;2023-02-23T11:52:32;97731.41;;;10.14;90.34
9423;BME280;65863;49.506;10.400;2023-02-23T11:55:19;97716.44;;;10.19;90.71
9423;BME280;65863;49.506;10.400;2023-02-23T12:00:54;97716.44;;;10.19;90.37
9423;BME280;65863;49.506;10.400;2023-02-23T12:03:53;97689.72;;;10.18;90.38
9423;BME280;65863;49.506;10.400;2023-02-23T12:06:40;97725.53;;;10.56;90.17
9423;BME280;65863;49.506;10.400;2023-02-23T12:09:31;97727.00;;;10.49;89.43
9423;BME280;65863;49.506;10.400;2023-02-23T12:12:20;97700.63;;;10.45;89.08
9423;BME280;65863;49.506;10.400;2023-02-23T12:15:25;97706.81;;;10.43;88.47
9423;BME280;65863;49.506;10.400;2023-02-23T12:18:51;97739.38;;;10.62;88.18
9423;BME280;65863;49.506;10.400;2023-02-23T12:21:44;97727.03;;;10.65;87.70
9423;BME280;65863;49.506;10.400;2023-02-23T12:27:29;97667.28;;;10.26;86.63
9423;BME280;65863;49.506;10.400;2023-02-23T12:30:38;97748.72;;;10.80;86.49
9423;BME280;65863;49.506;10.400;2023-02-23T12:33:43;97694.84;;;10.50;86.06
9423;BME280;65863;49.506;10.400;2023-02-23T12:36:39;97693.66;;;10.23;86.09
9423;BME280;65863;49.506;10.400;2023-02-23T12:39:30;97613.84;;;9.41;85.68
9423;BME280;65863;49.506;10.400;2023-02-23T12:42:28;97720.19;;;10.14;86.01
9423;BME280;65863;49.506;10.400;2023-02-23T12:45:33;97540.72;;;9.00;86.01
9423;BME280;65863;49.506;10.400;2023-02-23T12:48:36;97678.66;;;10.05;86.26
9423;BME280;65863;49.506;10.400;2023-02-23T12:51:32;97703.41;;;10.29;85.91
9423;BME280;65863;49.506;10.400;2023-02-23T12:54:19;97666.91;;;10.14;85.92
9423;BME280;65863;49.506;10.400;2023-02-23T13:06:06;97691.38;;;11.22;83.42
9423;BME280;65863;49.506;10.400;2023-02-23T13:09:07;97701.31;;;11.15;82.85
9423;BME280;65863;49.506;10.400;2023-02-23T13:24:01;97647.44;;;10.93;80.07
9423;BME280;65863;49.506;10.400;2023-02-23T13:26:58;97549.13;;;10.14;79.77
9423;BME280;65863;49.506;10.400;2023-02-23T13:29:45;97553.22;;;10.13;80.15
9423;BME280;65863;49.506;10.400;2023-02-23T13:32:32;97699.28;;;11.00;80.77
9423;BME280;65863;49.506;10.400;2023-02-23T13:35:18;97626.72;;;10.50;80.77
9423;BME280;65863;49.506;10.400;2023-02-23T13:41:14;97693.66;;;11.00;81.88
9423;BME280;65863;49.506;10.400;2023-02-23T13:47:31;97688.28;;;10.79;80.94
9423;BME280;65863;49.506;10.400;2023-02-23T13:50:22;97503.25;;;9.26;80.98
9423;BME280;65863;49.506;10.400;2023-02-23T13:53:40;97686.78;;;10.62;81.01
9423;BME280;65863;49.506;10.400;2023-02-23T13:56:31;97661.72;;;10.41;81.46
9423;BME280;65863;49.506;10.400;2023-02-23T13:59:22;97704.00;;;10.51;81.79
9423;BME280;65863;49.506;10.400;2023-02-23T14:02:34;97689.03;;;10.41;81.80
9423;BME280;65863;49.506;10.400;2023-02-23T14:05:24;97683.19;;;10.31;82.13
9423;BME280;65863;49.506;10.400;2023-02-23T14:08:20;97644.81;;;9.87;82.46
9423;BME280;65863;49.506;10.400;2023-02-23T14:11:05;97708.47;;;10.39;82.54
9423;BME280;65863;49.506;10.400;2023-02-23T14:14:01;97691.41;;;10.29;82.42
9423;BME280;65863;49.506;10.400;2023-02-23T14:26:13;97679.31;;;10.65;80.64
9423;BME280;65863;49.506;10.400;2023-02-23T14:31:59;97678.91;;;10.84;79.33
9423;BME280;65863;49.506;10.400;2023-02-23T14:34:48;97644.69;;;10.62;78.61
9423;BME280;65863;49.506;10.400;2023-02-23T14:40:40;97637.19;;;10.73;77.63
9423;BME280;65863;49.506;10.400;2023-02-23T14:43:38;97644.28;;;10.89;76.89
9423;BME280;65863;49.506;10.400;2023-02-23T14:46:25;97640.72;;;10.81;76.52
9423;BME280;65863;49.506;10.400;2023-02-23T14:49:18;97661.28;;;10.99;75.84
9423;BME280;65863;49.506;10.400;2023-02-23T14:57:54;97683.69;;;11.78;75.70
9423;BME280;65863;49.506;10.400;2023-02-23T15:00:41;97599.31;;;11.45;74.32
9423;BME280;65863;49.506;10.400;2023-02-23T15:03:25;97633.72;;;11.61;72.83
9423;BME280;65863;49.506;10.400;2023-02-23T15:06:09;97660.28;;;11.68;71.80
9423;BME280;65863;49.506;10.400;2023-02-23T15:08:53;97617.53;;;11.36;71.89
9423;BME280;65863;49.506;10.400;2023-02-23T15:11:37;97665.56;;;12.04;72.01
9423;BME280;65863;49.506;10.400;2023-02-23T15:14:24;97639.16;;;12.00;71.04
9423;BME280;65863;49.506;10.400;2023-02-23T15:17:20;97537.53;;;11.37;70.34
9423;BME280;65863;49.506;10.400;2023-02-23T15:20:07;97650.06;;;12.21;69.94
9423;BME280;65863;49.506;10.400;2023-02-23T15:22:55;97662.06;;;12.47;69.41
9423;BME280;65863;49.506;10.400;2023-02-23T15:25:42;97658.63;;;12.31;68.86
9423;BME280;65863;49.506;10.400;2023-02-23T15:28:30;97674.38;;;12.34;68.04
9423;BME280;65863;49.506;10.400;2023-02-23T15:31:15;97580.81;;;11.75;67.83
9423;BME280;65863;49.506;10.400;2023-02-23T15:33:59;97635.94;;;12.03;67.54
9423;BME280;65863;49.506;10.400;2023-02-23T15:36:43;97549.50;;;11.38;67.45
9423;BME280;65863;49.506;10.400;2023-02-23T15:39:35;97535.63;;;11.07;67.42
9423;BME280;65863;49.506;10.400;2023-02-23T15:42:24;97532.91;;;10.84;67.88
9423;BME280;65863;49.506;10.400;2023-02-23T15:48:09;97655.50;;;11.53;69.91
9423;BME280;65863;49.506;10.400;2023-02-23T15:50:57;97642.97;;;11.46;70.43
9423;BME280;65863;49.506;10.400;2023-02-23T15:53:42;97616.69;;;11.11;70.61
9423;BME280;65863;49.506;10.400;2023-02-23T15:56:28;97628.13;;;11.13;71.36
9423;BME280;65863;49.506;10.400;2023-02-23T15:59:20;97584.41;;;10.71;71.91
9423;BME280;65863;49.506;10.400;2023-02-23T16:02:14;97667.06;;;11.09;71.90
9423;BME280;65863;49.506;10.400;2023-02-23T16:05:07;97638.34;;;10.62;72.01
9423;BME280;65863;49.506;10.400;2023-02-23T16:08:06;97636.84;;;10.38;73.01
9423;BME280;65863;49.506;10.400;2023-02-23T16:11:00;97598.47;;;10.02;73.77
9423;BME280;65863;49.506;10.400;2023-02-23T16:13:50;97576.03;;;9.78;74.40
9423;BME280;65863;49.506;10.400;2023-02-23T16:16:36;97670.13;;;10.33;75.37
9423;BME280;65863;49.506;10.400;2023-02-23T16:19:22;97678.88;;;10.14;75.84
9423;BME280;65863;49.506;10.400;2023-02-23T16:22:17;97673.78;;;9.90;75.85
9423;BME280;65863;49.506;10.400;2023-02-23T16:25:07;97620.78;;;9.55;76.44
9423;BME280;65863;49.506;10.400;2023-02-23T16:28:00;97550.25;;;9.05;76.89
9423;BME280;65863;49.506;10.400;2023-02-23T16:30:56;97596.66;;;9.37;77.53
9423;BME280;65863;49.506;10.400;2023-02-23T16:33:45;97665.34;;;9.82;77.65
9423;BME280;65863;49.506;10.400;2023-02-23T16:36:35;97683.84;;;9.85;77.89
9423;BME280;65863;49.506;10.400;2023-02-23T16:39:26;97657.09;;;9.69;77.77
9423;BME280;65863;49.506;10.400;2023-02-23T16:45:13;97589.13;;;9.16;78.26
9423;BME280;65863;49.506;10.400;2023-02-23T16:47:59;97629.16;;;9.40;78.86
9423;BME280;65863;49.506;10.400;2023-02-23T16:50:47;97613.56;;;9.16;79.07